sensor_id;sensor_type;location;lat;lon;timestamp;P1;durP1;ratioP1;P2;durP2;ratioP2
30635;SDS011;17400;52.392;9.750;2023-06-14T00:02:11;3.88;;;3.10;;
30635;SDS011;17400;52.392;9.750;2023-06-14T00:04:39;4.03;;;2.75;;
30635;SDS011;17400;52.392;9.750;2023-06-14T00:07:10;5.28;;;2.35;;
30635;SDS011;17400;52.392;9.750;2023-06-14T00:09:40;4.50;;;2.80;;
30635;SDS011;17400;52.392;9.750;2023-06-14T00:12:09;4.75;;;3.30;;
30635;SDS011;17400;52.392;9.750;2023-06-14T00:14:37;4.65;;;3.10;;
30635;SDS011;17400;52.392;9.750;2023-06-14T00:17:05;5.20;;;3.00;;
30635;SDS011;17400;52.392;9.750;2023-06-14T00:19:35;5.53;;;3.30;;
30635;SDS011;17400;52.392;9.750;2023-06-14T00:22:03;4.38;;;3.42;;
30635;SDS011;17400;52.392;9.750;2023-06-14T00:24:33;3.72;;;2.72;;
30635;SDS011;17400;52.392;9.750;2023-06-14T00:27:01;3.60;;;2.50;;
30635;SDS011;17400;52.392;9.750;2023-06-14T00:29:29;7.68;;;3.47;;
30635;SDS011;17400;52.392;9.750;2023-06-14T00:31:57;3.95;;;2.80;;
30635;SDS011;17400;52.392;9.750;2023-06-14T00:34:24;4.93;;;2.55;;
30635;SDS011;17400;52.392;9.750;2023-06-14T00:36:52;4.00;;;2.60;;
30635;SDS011;17400;52.392;9.750;2023-06-14T00:39:20;6.15;;;3.10;;
30635;SDS011;17400;52.392;9.750;2023-06-14T00:41:49;3.72;;;2.55;;
30635;SDS011;17400;52.392;9.750;2023-06-14T00:44:17;4.75;;;3.70;;
30635;SDS011;17400;52.392;9.750;2023-06-14T00:46:45;5.68;;;3.15;;
30635;SDS011;17400;52.392;9.750;2023-06-14T00:49:15;6.30;;;3.13;;
30635;SDS011;17400;52.392;9.750;2023-06-14T00:51:47;5.05;;;2.92;;
30635;SDS011;17400;52.392;9.750;2023-06-14T00:54:15;3.95;;;2.40;;
30635;SDS011;17400;52.392;9.750;2023-06-14T00:56:43;4.10;;;2.70;;
30635;SDS011;17400;52.392;9.750;2023-06-14T00:59:14;4.95;;;2.80;;
30635;SDS011;17400;52.392;9.750;2023-06-14T01:01:42;4.30;;;2.97;;
30635;SDS011;17400;52.392;9.750;2023-06-14T01:04:13;6.00;;;3.05;;
30635;SDS011;17400;52.392;9.750;2023-06-14T01:06:42;7.43;;;3.10;;
30635;SDS011;17400;52.392;9.750;2023-06-14T01:09:32;5.22;;;2.80;;
30635;SDS011;17400;52.392;9.750;2023-06-14T01:12:09;4.60;;;2.65;;
30635;SDS011;17400;52.392;9.750;2023-06-14T01:14:43;4.22;;;2.75;;
30635;SDS011;17400;52.392;9.750;2023-06-14T01:17:13;5.22;;;2.80;;
30635;SDS011;17400;52.392;9.750;2023-06-14T01:19:43;3.88;;;2.92;;
30635;SDS011;17400;52.392;9.750;2023-06-14T01:22:12;4.43;;;2.95;;
30635;SDS011;17400;52.392;9.750;2023-06-14T01:24:42;4.43;;;2.97;;
30635;SDS011;17400;52.392;9.750;2023-06-14T01:27:11;4.90;;;3.50;;
30635;SDS011;17400;52.392;9.750;2023-06-14T01:29:42;4.30;;;2.55;;
30635;SDS011;17400;52.392;9.750;2023-06-14T01:32:12;4.18;;;2.47;;
30635;SDS011;17400;52.392;9.750;2023-06-14T01:34:41;6.22;;;2.92;;
30635;SDS011;17400;52.392;9.750;2023-06-14T01:37:10;3.30;;;2.72;;
30635;SDS011;17400;52.392;9.750;2023-06-14T01:39:39;4.78;;;2.67;;
30635;SDS011;17400;52.392;9.750;2023-06-14T01:42:11;3.85;;;2.88;;
30635;SDS011;17400;52.392;9.750;2023-06-14T01:44:41;3.92;;;2.63;;
30635;SDS011;17400;52.392;9.750;2023-06-14T01:47:11;4.63;;;2.67;;
30635;SDS011;17400;52.392;9.750;2023-06-14T01:49:40;4.07;;;2.58;;
30635;SDS011;17400;52.392;9.750;2023-06-14T01:52:08;5.10;;;3.50;;
30635;SDS011;17400;52.392;9.750;2023-06-14T01:54:36;3.33;;;2.17;;
30635;SDS011;17400;52.392;9.750;2023-06-14T01:57:10;4.50;;;2.92;;
30635;SDS011;17400;52.392;9.750;2023-06-14T01:59:39;3.33;;;2.25;;
30635;SDS011;17400;52.392;9.750;2023-06-14T02:02:07;6.50;;;3.08;;
30635;SDS011;17400;52.392;9.750;2023-06-14T02:04:35;6.28;;;2.80;;
30635;SDS011;17400;52.392;9.750;2023-06-14T02:07:04;3.63;;;2.38;;
30635;SDS011;17400;52.392;9.750;2023-06-14T02:09:32;4.10;;;3.15;;
30635;SDS011;17400;52.392;9.750;2023-06-14T02:12:00;3.67;;;2.40;;
30635;SDS011;17400;52.392;9.750;2023-06-14T02:14:30;4.63;;;2.70;;
30635;SDS011;17400;52.392;9.750;2023-06-14T02:16:59;3.85;;;2.35;;
30635;SDS011;17400;52.392;9.750;2023-06-14T02:19:27;3.50;;;2.80;;
30635;SDS011;17400;52.392;9.750;2023-06-14T02:21:55;2.97;;;2.22;;
30635;SDS011;17400;52.392;9.750;2023-06-14T02:24:24;6.70;;;2.88;;
30635;SDS011;17400;52.392;9.750;2023-06-14T02:26:52;3.88;;;3.03;;
30635;SDS011;17400;52.392;9.750;2023-06-14T02:29:20;5.65;;;2.70;;
30635;SDS011;17400;52.392;9.750;2023-06-14T02:31:52;3.67;;;2.20;;
30635;SDS011;17400;52.392;9.750;2023-06-14T02:34:20;5.43;;;2.55;;
30635;SDS011;17400;52.392;9.750;2023-06-14T02:36:48;5.25;;;2.42;;
30635;SDS011;17400;52.392;9.750;2023-06-14T02:39:17;5.15;;;2.20;;
30635;SDS011;17400;52.392;9.750;2023-06-14T02:41:47;4.28;;;2.83;;
30635;SDS011;17400;52.392;9.750;2023-06-14T02:44:17;5.03;;;2.78;;
30635;SDS011;17400;52.392;9.750;2023-06-14T02:46:45;4.40;;;2.85;;
30635;SDS011;17400;52.392;9.750;2023-06-14T02:49:15;4.25;;;2.60;;
30635;SDS011;17400;52.392;9.750;2023-06-14T02:51:43;5.32;;;3.13;;
30635;SDS011;17400;52.392;9.750;2023-06-14T02:54:11;5.45;;;2.75;;
30635;SDS011;17400;52.392;9.750;2023-06-14T02:56:43;4.50;;;2.40;;
30635;SDS011;17400;52.392;9.750;2023-06-14T02:59:11;2.90;;;2.28;;
30635;SDS011;17400;52.392;9.750;2023-06-14T03:01:40;4.22;;;2.67;;
30635;SDS011;17400;52.392;9.750;2023-06-14T03:04:09;3.63;;;2.67;;
30635;SDS011;17400;52.392;9.750;2023-06-14T03:06:39;4.65;;;3.25;;
30635;SDS011;17400;52.392;9.750;2023-06-14T03:09:07;3.92;;;2.60;;
30635;SDS011;17400;52.392;9.750;2023-06-14T03:11:36;3.58;;;2.42;;
30635;SDS011;17400;52.392;9.750;2023-06-14T03:14:03;4.32;;;2.72;;
30635;SDS011;17400;52.392;9.750;2023-06-14T03:16:33;4.50;;;2.92;;
30635;SDS011;17400;52.392;9.750;2023-06-14T03:19:01;4.65;;;2.92;;
30635;SDS011;17400;52.392;9.750;2023-06-14T03:21:30;4.95;;;2.70;;
30635;SDS011;17400;52.392;9.750;2023-06-14T03:24:01;2.92;;;2.05;;
30635;SDS011;17400;52.392;9.750;2023-06-14T03:26:31;3.50;;;2.47;;
30635;SDS011;17400;52.392;9.750;2023-06-14T03:29:00;4.20;;;2.33;;
30635;SDS011;17400;52.392;9.750;2023-06-14T03:31:28;3.25;;;2.15;;
30635;SDS011;17400;52.392;9.750;2023-06-14T03:33:59;3.78;;;2.60;;
30635;SDS011;17400;52.392;9.750;2023-06-14T03:36:27;3.30;;;2.65;;
30635;SDS011;17400;52.392;9.750;2023-06-14T03:38:55;5.15;;;3.03;;
30635;SDS011;17400;52.392;9.750;2023-06-14T03:41:25;4.78;;;2.58;;
30635;SDS011;17400;52.392;9.750;2023-06-14T03:43:54;5.13;;;3.25;;
30635;SDS011;17400;52.392;9.750;2023-06-14T03:46:21;5.43;;;2.85;;
30635;SDS011;17400;52.392;9.750;2023-06-14T03:48:50;5.28;;;2.80;;
30635;SDS011;17400;52.392;9.750;2023-06-14T03:51:18;4.50;;;3.05;;
30635;SDS011;17400;52.392;9.750;2023-06-14T03:53:47;5.57;;;2.78;;
30635;SDS011;17400;52.392;9.750;2023-06-14T03:56:36;7.60;;;3.22;;
30635;SDS011;17400;52.392;9.750;2023-06-14T03:59:04;3.67;;;2.33;;
30635;SDS011;17400;52.392;9.750;2023-06-14T04:01:32;4.97;;;2.78;;
30635;SDS011;17400;52.392;9.750;2023-06-14T04:04:00;3.58;;;2.45;;
30635;SDS011;17400;52.392;9.750;2023-06-14T04:06:29;3.30;;;2.40;;
30635;SDS011;17400;52.392;9.750;2023-06-14T04:08:59;3.58;;;2.65;;
30635;SDS011;17400;52.392;9.750;2023-06-14T04:11:30;6.10;;;2.85;;
30635;SDS011;17400;52.392;9.750;2023-06-14T04:14:01;6.20;;;3.13;;
30635;SDS011;17400;52.392;9.750;2023-06-14T04:16:31;4.93;;;3.17;;
30635;SDS011;17400;52.392;9.750;2023-06-14T04:19:00;3.08;;;2.33;;
30635;SDS011;17400;52.392;9.750;2023-06-14T04:21:29;4.55;;;3.42;;
30635;SDS011;17400;52.392;9.750;2023-06-14T04:23:57;4.57;;;3.17;;
30635;SDS011;17400;52.392;9.750;2023-06-14T04:26:29;4.50;;;2.70;;
30635;SDS011;17400;52.392;9.750;2023-06-14T04:29:01;4.32;;;3.50;;
30635;SDS011;17400;52.392;9.750;2023-06-14T04:31:29;5.53;;;2.22;;
30635;SDS011;17400;52.392;9.750;2023-06-14T04:34:00;3.70;;;2.70;;
30635;SDS011;17400;52.392;9.750;2023-06-14T04:36:32;5.38;;;3.53;;
30635;SDS011;17400;52.392;9.750;2023-06-14T04:39:04;4.50;;;2.45;;
30635;SDS011;17400;52.392;9.750;2023-06-14T04:41:39;4.32;;;3.00;;
30635;SDS011;17400;52.392;9.750;2023-06-14T04:44:16;6.57;;;3.47;;
30635;SDS011;17400;52.392;9.750;2023-06-14T04:46:46;4.25;;;2.88;;
30635;SDS011;17400;52.392;9.750;2023-06-14T04:49:14;4.55;;;3.60;;
30635;SDS011;17400;52.392;9.750;2023-06-14T04:51:45;5.30;;;2.95;;
30635;SDS011;17400;52.392;9.750;2023-06-14T04:54:29;7.20;;;2.58;;
30635;SDS011;17400;52.392;9.750;2023-06-14T04:57:00;3.83;;;2.47;;
30635;SDS011;17400;52.392;9.750;2023-06-14T04:59:31;4.03;;;2.78;;
30635;SDS011;17400;52.392;9.750;2023-06-14T05:02:03;3.90;;;2.40;;
30635;SDS011;17400;52.392;9.750;2023-06-14T05:04:33;4.10;;;2.35;;
30635;SDS011;17400;52.392;9.750;2023-06-14T05:07:06;2.90;;;2.25;;
30635;SDS011;17400;52.392;9.750;2023-06-14T05:09:37;3.92;;;2.80;;
30635;SDS011;17400;52.392;9.750;2023-06-14T05:12:05;3.55;;;2.65;;
30635;SDS011;17400;52.392;9.750;2023-06-14T05:14:39;2.95;;;2.20;;
30635;SDS011;17400;52.392;9.750;2023-06-14T05:17:07;5.78;;;3.15;;
30635;SDS011;17400;52.392;9.750;2023-06-14T05:19:36;3.28;;;2.35;;
30635;SDS011;17400;52.392;9.750;2023-06-14T05:22:04;2.60;;;2.00;;
30635;SDS011;17400;52.392;9.750;2023-06-14T05:24:33;3.35;;;2.42;;
30635;SDS011;17400;52.392;9.750;2023-06-14T05:27:05;3.38;;;2.83;;
30635;SDS011;17400;52.392;9.750;2023-06-14T05:29:33;4.93;;;1.98;;
30635;SDS011;17400;52.392;9.750;2023-06-14T05:32:04;8.77;;;4.60;;
30635;SDS011;17400;52.392;9.750;2023-06-14T05:34:32;6.35;;;2.33;;
30635;SDS011;17400;52.392;9.750;2023-06-14T05:37:01;4.53;;;2.22;;
30635;SDS011;17400;52.392;9.750;2023-06-14T05:39:30;4.47;;;2.30;;
30635;SDS011;17400;52.392;9.750;2023-06-14T05:41:58;3.75;;;2.28;;
30635;SDS011;17400;52.392;9.750;2023-06-14T05:44:27;4.80;;;2.70;;
30635;SDS011;17400;52.392;9.750;2023-06-14T05:46:55;5.28;;;2.60;;
30635;SDS011;17400;52.392;9.750;2023-06-14T05:49:25;4.15;;;2.13;;
30635;SDS011;17400;52.392;9.750;2023-06-14T05:51:53;5.15;;;2.15;;
30635;SDS011;17400;52.392;9.750;2023-06-14T05:54:21;10.65;;;2.35;;
30635;SDS011;17400;52.392;9.750;2023-06-14T05:56:49;4.93;;;2.20;;
30635;SDS011;17400;52.392;9.750;2023-06-14T05:59:18;5.88;;;2.20;;
30635;SDS011;17400;52.392;9.750;2023-06-14T06:01:50;5.07;;;1.98;;
30635;SDS011;17400;52.392;9.750;2023-06-14T06:04:18;5.88;;;2.42;;
30635;SDS011;17400;52.392;9.750;2023-06-14T06:06:47;2.15;;;1.73;;
30635;SDS011;17400;52.392;9.750;2023-06-14T06:09:16;9.40;;;2.65;;
30635;SDS011;17400;52.392;9.750;2023-06-14T06:11:44;6.88;;;2.63;;
30635;SDS011;17400;52.392;9.750;2023-06-14T06:14:19;4.75;;;2.63;;
30635;SDS011;17400;52.392;9.750;2023-06-14T06:16:47;4.00;;;2.25;;
30635;SDS011;17400;52.392;9.750;2023-06-14T06:19:15;5.57;;;2.20;;
30635;SDS011;17400;52.392;9.750;2023-06-14T06:21:43;4.45;;;2.00;;
30635;SDS011;17400;52.392;9.750;2023-06-14T06:24:13;4.38;;;2.03;;
30635;SDS011;17400;52.392;9.750;2023-06-14T06:26:41;3.65;;;2.58;;
30635;SDS011;17400;52.392;9.750;2023-06-14T06:29:09;4.15;;;2.40;;
30635;SDS011;17400;52.392;9.750;2023-06-14T06:31:37;3.22;;;2.10;;
30635;SDS011;17400;52.392;9.750;2023-06-14T06:34:06;4.68;;;3.00;;
30635;SDS011;17400;52.392;9.750;2023-06-14T06:36:34;2.88;;;1.60;;
30635;SDS011;17400;52.392;9.750;2023-06-14T06:39:02;3.33;;;2.25;;
30635;SDS011;17400;52.392;9.750;2023-06-14T06:41:37;4.45;;;2.53;;
30635;SDS011;17400;52.392;9.750;2023-06-14T06:44:06;3.53;;;2.30;;
30635;SDS011;17400;52.392;9.750;2023-06-14T06:46:34;4.68;;;2.80;;
30635;SDS011;17400;52.392;9.750;2023-06-14T06:49:07;4.85;;;2.47;;
30635;SDS011;17400;52.392;9.750;2023-06-14T06:51:35;4.93;;;2.08;;
30635;SDS011;17400;52.392;9.750;2023-06-14T06:54:04;2.72;;;1.88;;
30635;SDS011;17400;52.392;9.750;2023-06-14T06:56:36;7.50;;;2.65;;
30635;SDS011;17400;52.392;9.750;2023-06-14T06:59:05;2.75;;;1.83;;
30635;SDS011;17400;52.392;9.750;2023-06-14T07:01:33;3.05;;;2.00;;
30635;SDS011;17400;52.392;9.750;2023-06-14T07:04:03;3.90;;;2.28;;
30635;SDS011;17400;52.392;9.750;2023-06-14T07:06:31;3.38;;;1.95;;
30635;SDS011;17400;52.392;9.750;2023-06-14T07:09:00;3.95;;;2.05;;
30635;SDS011;17400;52.392;9.750;2023-06-14T07:11:30;5.07;;;2.08;;
30635;SDS011;17400;52.392;9.750;2023-06-14T07:14:00;2.63;;;2.25;;
30635;SDS011;17400;52.392;9.750;2023-06-14T07:16:29;6.95;;;2.72;;
30635;SDS011;17400;52.392;9.750;2023-06-14T07:18:57;3.60;;;2.10;;
30635;SDS011;17400;52.392;9.750;2023-06-14T07:21:26;3.75;;;2.25;;
30635;SDS011;17400;52.392;9.750;2023-06-14T07:23:54;3.25;;;2.03;;
30635;SDS011;17400;52.392;9.750;2023-06-14T07:26:23;4.68;;;2.75;;
30635;SDS011;17400;52.392;9.750;2023-06-14T07:28:54;4.68;;;2.20;;
30635;SDS011;17400;52.392;9.750;2023-06-14T07:31:24;2.72;;;2.15;;
30635;SDS011;17400;52.392;9.750;2023-06-14T07:33:53;2.95;;;2.25;;
30635;SDS011;17400;52.392;9.750;2023-06-14T07:36:21;3.50;;;2.25;;
30635;SDS011;17400;52.392;9.750;2023-06-14T07:38:50;2.15;;;1.80;;
30635;SDS011;17400;52.392;9.750;2023-06-14T07:41:18;2.60;;;1.63;;
30635;SDS011;17400;52.392;9.750;2023-06-14T07:43:46;3.13;;;1.83;;
30635;SDS011;17400;52.392;9.750;2023-06-14T07:46:14;3.67;;;1.60;;
30635;SDS011;17400;52.392;9.750;2023-06-14T07:48:44;2.35;;;1.63;;
30635;SDS011;17400;52.392;9.750;2023-06-14T07:51:13;3.13;;;1.83;;
30635;SDS011;17400;52.392;9.750;2023-06-14T07:53:45;2.75;;;2.03;;
30635;SDS011;17400;52.392;9.750;2023-06-14T07:56:14;5.10;;;2.20;;
30635;SDS011;17400;52.392;9.750;2023-06-14T07:58:42;2.97;;;2.20;;
30635;SDS011;17400;52.392;9.750;2023-06-14T08:01:13;3.22;;;1.92;;
30635;SDS011;17400;52.392;9.750;2023-06-14T08:03:45;3.15;;;2.08;;
30635;SDS011;17400;52.392;9.750;2023-06-14T08:06:14;2.05;;;1.67;;
30635;SDS011;17400;52.392;9.750;2023-06-14T08:08:42;3.10;;;2.40;;
30635;SDS011;17400;52.392;9.750;2023-06-14T08:11:11;3.78;;;2.60;;
30635;SDS011;17400;52.392;9.750;2023-06-14T08:13:39;2.95;;;2.05;;
30635;SDS011;17400;52.392;9.750;2023-06-14T08:16:07;5.20;;;2.22;;
30635;SDS011;17400;52.392;9.750;2023-06-14T08:18:36;3.53;;;2.33;;
30635;SDS011;17400;52.392;9.750;2023-06-14T08:21:05;3.25;;;2.35;;
30635;SDS011;17400;52.392;9.750;2023-06-14T08:23:34;3.28;;;2.45;;
30635;SDS011;17400;52.392;9.750;2023-06-14T08:26:06;4.30;;;2.97;;
30635;SDS011;17400;52.392;9.750;2023-06-14T08:28:34;3.40;;;2.20;;
30635;SDS011;17400;52.392;9.750;2023-06-14T08:31:01;3.83;;;2.90;;
30635;SDS011;17400;52.392;9.750;2023-06-14T08:33:30;3.42;;;2.20;;
30635;SDS011;17400;52.392;9.750;2023-06-14T08:36:00;2.92;;;2.22;;
30635;SDS011;17400;52.392;9.750;2023-06-14T08:38:30;3.05;;;2.30;;
30635;SDS011;17400;52.392;9.750;2023-06-14T08:40:58;4.00;;;2.17;;
30635;SDS011;17400;52.392;9.750;2023-06-14T08:43:28;3.70;;;2.28;;
30635;SDS011;17400;52.392;9.750;2023-06-14T08:45:57;2.83;;;2.15;;
30635;SDS011;17400;52.392;9.750;2023-06-14T08:48:27;6.35;;;2.70;;
30635;SDS011;17400;52.392;9.750;2023-06-14T08:50:56;2.88;;;1.85;;
30635;SDS011;17400;52.392;9.750;2023-06-14T08:53:30;3.67;;;2.42;;
30635;SDS011;17400;52.392;9.750;2023-06-14T08:56:04;3.63;;;2.30;;
30635;SDS011;17400;52.392;9.750;2023-06-14T08:58:34;3.28;;;1.60;;
30635;SDS011;17400;52.392;9.750;2023-06-14T09:01:02;5.50;;;2.60;;
30635;SDS011;17400;52.392;9.750;2023-06-14T09:03:31;3.70;;;2.45;;
30635;SDS011;17400;52.392;9.750;2023-06-14T09:06:00;5.35;;;2.83;;
30635;SDS011;17400;52.392;9.750;2023-06-14T09:08:31;6.15;;;2.45;;
30635;SDS011;17400;52.392;9.750;2023-06-14T09:11:00;3.78;;;2.50;;
30635;SDS011;17400;52.392;9.750;2023-06-14T09:13:30;3.72;;;2.60;;
30635;SDS011;17400;52.392;9.750;2023-06-14T09:15:58;4.55;;;2.53;;
30635;SDS011;17400;52.392;9.750;2023-06-14T09:18:33;3.08;;;2.15;;
30635;SDS011;17400;52.392;9.750;2023-06-14T09:21:02;3.28;;;2.42;;
30635;SDS011;17400;52.392;9.750;2023-06-14T09:23:33;5.13;;;2.50;;
30635;SDS011;17400;52.392;9.750;2023-06-14T09:26:06;3.55;;;2.22;;
30635;SDS011;17400;52.392;9.750;2023-06-14T09:28:35;4.03;;;1.80;;
30635;SDS011;17400;52.392;9.750;2023-06-14T09:31:03;3.85;;;1.95;;
30635;SDS011;17400;52.392;9.750;2023-06-14T09:33:32;3.70;;;2.95;;
30635;SDS011;17400;52.392;9.750;2023-06-14T09:36:00;3.95;;;3.10;;
30635;SDS011;17400;52.392;9.750;2023-06-14T09:38:28;3.65;;;2.22;;
30635;SDS011;17400;52.392;9.750;2023-06-14T09:40:58;3.67;;;2.38;;
30635;SDS011;17400;52.392;9.750;2023-06-14T09:43:27;4.25;;;2.42;;
30635;SDS011;17400;52.392;9.750;2023-06-14T09:45:56;3.83;;;2.05;;
30635;SDS011;17400;52.392;9.750;2023-06-14T09:48:24;6.10;;;2.22;;
30635;SDS011;17400;52.392;9.750;2023-06-14T09:50:54;3.22;;;2.20;;
30635;SDS011;17400;52.392;9.750;2023-06-14T09:53:25;3.17;;;2.00;;
30635;SDS011;17400;52.392;9.750;2023-06-14T09:55:56;5.03;;;2.78;;
30635;SDS011;17400;52.392;9.750;2023-06-14T09:58:26;3.65;;;2.55;;
30635;SDS011;17400;52.392;9.750;2023-06-14T10:00:57;5.40;;;2.00;;
30635;SDS011;17400;52.392;9.750;2023-06-14T10:03:28;5.03;;;2.47;;
30635;SDS011;17400;52.392;9.750;2023-06-14T10:06:09;2.95;;;2.10;;
30635;SDS011;17400;52.392;9.750;2023-06-14T10:08:40;3.42;;;2.22;;
30635;SDS011;17400;52.392;9.750;2023-06-14T10:11:10;4.43;;;1.95;;
30635;SDS011;17400;52.392;9.750;2023-06-14T10:13:40;3.40;;;2.28;;
30635;SDS011;17400;52.392;9.750;2023-06-14T10:16:10;7.68;;;2.85;;
30635;SDS011;17400;52.392;9.750;2023-06-14T10:18:44;4.45;;;2.50;;
30635;SDS011;17400;52.392;9.750;2023-06-14T10:21:18;3.97;;;2.72;;
30635;SDS011;17400;52.392;9.750;2023-06-14T10:23:55;8.75;;;3.22;;
30635;SDS011;17400;52.392;9.750;2023-06-14T10:26:29;5.10;;;2.33;;
30635;SDS011;17400;52.392;9.750;2023-06-14T10:28:58;3.53;;;2.40;;
30635;SDS011;17400;52.392;9.750;2023-06-14T10:31:41;7.38;;;2.67;;
30635;SDS011;17400;52.392;9.750;2023-06-14T10:34:11;3.78;;;2.50;;
30635;SDS011;17400;52.392;9.750;2023-06-14T10:36:41;3.25;;;2.60;;
30635;SDS011;17400;52.392;9.750;2023-06-14T10:39:12;2.47;;;1.88;;
30635;SDS011;17400;52.392;9.750;2023-06-14T10:41:51;3.65;;;2.72;;
30635;SDS011;17400;52.392;9.750;2023-06-14T10:44:32;5.78;;;2.72;;
30635;SDS011;17400;52.392;9.750;2023-06-14T10:47:05;3.67;;;2.80;;
30635;SDS011;17400;52.392;9.750;2023-06-14T10:49:40;3.95;;;2.90;;
30635;SDS011;17400;52.392;9.750;2023-06-14T10:52:10;5.40;;;3.95;;
30635;SDS011;17400;52.392;9.750;2023-06-14T10:54:59;7.53;;;4.10;;
30635;SDS011;17400;52.392;9.750;2023-06-14T10:57:29;7.15;;;2.85;;
30635;SDS011;17400;52.392;9.750;2023-06-14T11:00:14;5.95;;;4.30;;
30635;SDS011;17400;52.392;9.750;2023-06-14T11:02:48;3.40;;;2.63;;
30635;SDS011;17400;52.392;9.750;2023-06-14T11:05:25;3.60;;;2.53;;
30635;SDS011;17400;52.392;9.750;2023-06-14T11:10:57;4.15;;;3.13;;
30635;SDS011;17400;52.392;9.750;2023-06-14T11:13:29;5.32;;;3.00;;
30635;SDS011;17400;52.392;9.750;2023-06-14T11:15:58;3.83;;;2.83;;
30635;SDS011;17400;52.392;9.750;2023-06-14T11:18:28;6.05;;;2.88;;
30635;SDS011;17400;52.392;9.750;2023-06-14T11:20:56;5.13;;;3.72;;
30635;SDS011;17400;52.392;9.750;2023-06-14T11:23:25;3.53;;;2.42;;
30635;SDS011;17400;52.392;9.750;2023-06-14T11:25:53;6.15;;;2.55;;
30635;SDS011;17400;52.392;9.750;2023-06-14T11:28:35;6.28;;;2.75;;
30635;SDS011;17400;52.392;9.750;2023-06-14T11:31:07;3.33;;;2.38;;
30635;SDS011;17400;52.392;9.750;2023-06-14T11:33:36;4.70;;;2.97;;
30635;SDS011;17400;52.392;9.750;2023-06-14T11:36:05;4.82;;;2.60;;
30635;SDS011;17400;52.392;9.750;2023-06-14T11:38:35;5.10;;;2.53;;
30635;SDS011;17400;52.392;9.750;2023-06-14T11:41:04;5.40;;;3.20;;
30635;SDS011;17400;52.392;9.750;2023-06-14T11:43:33;4.55;;;2.70;;
30635;SDS011;17400;52.392;9.750;2023-06-14T11:46:03;4.18;;;2.85;;
30635;SDS011;17400;52.392;9.750;2023-06-14T11:48:37;4.30;;;3.10;;
30635;SDS011;17400;52.392;9.750;2023-06-14T11:51:06;5.13;;;3.15;;
30635;SDS011;17400;52.392;9.750;2023-06-14T11:53:35;5.82;;;3.45;;
30635;SDS011;17400;52.392;9.750;2023-06-14T11:56:03;5.13;;;3.67;;
30635;SDS011;17400;52.392;9.750;2023-06-14T11:58:32;6.15;;;3.75;;
30635;SDS011;17400;52.392;9.750;2023-06-14T12:01:00;4.55;;;2.55;;
30635;SDS011;17400;52.392;9.750;2023-06-14T12:03:32;3.85;;;2.65;;
30635;SDS011;17400;52.392;9.750;2023-06-14T12:06:01;3.90;;;2.78;;
30635;SDS011;17400;52.392;9.750;2023-06-14T12:08:34;6.78;;;3.40;;
30635;SDS011;17400;52.392;9.750;2023-06-14T12:11:05;7.22;;;3.13;;
30635;SDS011;17400;52.392;9.750;2023-06-14T12:13:37;4.63;;;3.35;;
30635;SDS011;17400;52.392;9.750;2023-06-14T12:16:08;7.30;;;4.00;;
30635;SDS011;17400;52.392;9.750;2023-06-14T12:18:37;7.55;;;3.72;;
30635;SDS011;17400;52.392;9.750;2023-06-14T12:21:08;6.18;;;3.45;;
30635;SDS011;17400;52.392;9.750;2023-06-14T12:23:43;4.70;;;3.50;;
30635;SDS011;17400;52.392;9.750;2023-06-14T12:26:13;5.95;;;3.92;;
30635;SDS011;17400;52.392;9.750;2023-06-14T12:28:44;6.68;;;3.83;;
30635;SDS011;17400;52.392;9.750;2023-06-14T12:31:16;4.63;;;3.25;;
30635;SDS011;17400;52.392;9.750;2023-06-14T12:33:46;6.35;;;3.90;;
30635;SDS011;17400;52.392;9.750;2023-06-14T12:36:16;3.83;;;2.30;;
30635;SDS011;17400;52.392;9.750;2023-06-14T12:38:44;4.57;;;3.25;;
30635;SDS011;17400;52.392;9.750;2023-06-14T12:41:13;6.40;;;3.30;;
30635;SDS011;17400;52.392;9.750;2023-06-14T12:43:42;5.22;;;3.85;;
30635;SDS011;17400;52.392;9.750;2023-06-14T12:46:11;7.90;;;3.50;;
30635;SDS011;17400;52.392;9.750;2023-06-14T12:48:40;12.15;;;5.05;;
30635;SDS011;17400;52.392;9.750;2023-06-14T12:51:08;5.57;;;3.78;;
30635;SDS011;17400;52.392;9.750;2023-06-14T12:53:37;4.90;;;3.25;;
30635;SDS011;17400;52.392;9.750;2023-06-14T12:56:05;3.75;;;3.30;;
30635;SDS011;17400;52.392;9.750;2023-06-14T12:58:33;5.82;;;3.30;;
30635;SDS011;17400;52.392;9.750;2023-06-14T13:01:01;4.25;;;2.85;;
30635;SDS011;17400;52.392;9.750;2023-06-14T13:03:33;3.70;;;2.53;;
30635;SDS011;17400;52.392;9.750;2023-06-14T13:06:06;6.15;;;3.95;;
30635;SDS011;17400;52.392;9.750;2023-06-14T13:08:38;4.30;;;3.42;;
30635;SDS011;17400;52.392;9.750;2023-06-14T13:11:07;8.73;;;3.80;;
30635;SDS011;17400;52.392;9.750;2023-06-14T13:13:35;5.75;;;3.35;;
30635;SDS011;17400;52.392;9.750;2023-06-14T13:16:03;6.20;;;3.47;;
30635;SDS011;17400;52.392;9.750;2023-06-14T13:18:31;7.47;;;4.03;;
30635;SDS011;17400;52.392;9.750;2023-06-14T13:21:00;9.38;;;4.57;;
30635;SDS011;17400;52.392;9.750;2023-06-14T13:23:30;8.88;;;3.95;;
30635;SDS011;17400;52.392;9.750;2023-06-14T13:25:58;5.20;;;3.63;;
30635;SDS011;17400;52.392;9.750;2023-06-14T13:28:29;5.50;;;3.63;;
30635;SDS011;17400;52.392;9.750;2023-06-14T13:30:58;5.22;;;3.30;;
30635;SDS011;17400;52.392;9.750;2023-06-14T13:33:26;4.88;;;3.90;;
30635;SDS011;17400;52.392;9.750;2023-06-14T13:35:54;7.07;;;3.47;;
30635;SDS011;17400;52.392;9.750;2023-06-14T13:38:22;6.30;;;3.90;;
30635;SDS011;17400;52.392;9.750;2023-06-14T13:40:51;8.45;;;4.05;;
30635;SDS011;17400;52.392;9.750;2023-06-14T13:43:19;5.15;;;3.60;;
30635;SDS011;17400;52.392;9.750;2023-06-14T13:45:49;5.80;;;3.55;;
30635;SDS011;17400;52.392;9.750;2023-06-14T13:48:17;6.70;;;3.70;;
30635;SDS011;17400;52.392;9.750;2023-06-14T13:50:45;6.55;;;3.55;;
30635;SDS011;17400;52.392;9.750;2023-06-14T13:53:14;4.15;;;2.95;;
30635;SDS011;17400;52.392;9.750;2023-06-14T13:55:42;4.25;;;3.08;;
30635;SDS011;17400;52.392;9.750;2023-06-14T13:58:12;5.43;;;3.45;;
30635;SDS011;17400;52.392;9.750;2023-06-14T14:00:41;4.60;;;2.97;;
30635;SDS011;17400;52.392;9.750;2023-06-14T14:03:09;16.40;;;4.45;;
30635;SDS011;17400;52.392;9.750;2023-06-14T14:05:37;4.72;;;4.18;;
30635;SDS011;17400;52.392;9.750;2023-06-14T14:08:05;8.85;;;4.18;;
30635;SDS011;17400;52.392;9.750;2023-06-14T14:10:34;6.20;;;3.80;;
30635;SDS011;17400;52.392;9.750;2023-06-14T14:13:02;3.85;;;3.25;;
30635;SDS011;17400;52.392;9.750;2023-06-14T14:15:31;6.93;;;4.07;;
30635;SDS011;17400;52.392;9.750;2023-06-14T14:18:01;5.65;;;3.35;;
30635;SDS011;17400;52.392;9.750;2023-06-14T14:20:30;6.43;;;4.50;;
30635;SDS011;17400;52.392;9.750;2023-06-14T14:22:58;10.35;;;3.30;;
30635;SDS011;17400;52.392;9.750;2023-06-14T14:25:27;5.63;;;3.67;;
30635;SDS011;17400;52.392;9.750;2023-06-14T14:27:55;5.85;;;3.88;;
30635;SDS011;17400;52.392;9.750;2023-06-14T14:30:23;8.15;;;3.70;;
30635;SDS011;17400;52.392;9.750;2023-06-14T14:32:55;3.45;;;2.63;;
30635;SDS011;17400;52.392;9.750;2023-06-14T14:35:23;4.60;;;3.50;;
30635;SDS011;17400;52.392;9.750;2023-06-14T14:37:56;6.93;;;3.38;;
30635;SDS011;17400;52.392;9.750;2023-06-14T14:40:24;6.78;;;4.10;;
30635;SDS011;17400;52.392;9.750;2023-06-14T14:42:52;5.88;;;3.90;;
30635;SDS011;17400;52.392;9.750;2023-06-14T14:45:20;4.90;;;3.25;;
30635;SDS011;17400;52.392;9.750;2023-06-14T14:47:48;7.65;;;4.32;;
30635;SDS011;17400;52.392;9.750;2023-06-14T14:50:20;4.18;;;3.35;;
30635;SDS011;17400;52.392;9.750;2023-06-14T14:52:48;5.15;;;3.50;;
30635;SDS011;17400;52.392;9.750;2023-06-14T14:55:16;6.15;;;3.17;;
30635;SDS011;17400;52.392;9.750;2023-06-14T14:57:45;6.25;;;3.67;;
30635;SDS011;17400;52.392;9.750;2023-06-14T15:00:16;6.88;;;3.95;;
30635;SDS011;17400;52.392;9.750;2023-06-14T15:02:45;4.82;;;3.70;;
30635;SDS011;17400;52.392;9.750;2023-06-14T15:05:13;5.10;;;4.03;;
30635;SDS011;17400;52.392;9.750;2023-06-14T15:07:42;5.05;;;3.80;;